createdAt,value
2022-10-13T00:00:49.832Z,20.73
2022-10-13T00:03:17.375Z,20.15
2022-10-13T00:05:46.289Z,20.50
2022-10-13T00:08:14.193Z,20.50
2022-10-13T00:10:46.327Z,21.77
2022-10-13T00:13:13.738Z,21.60
2022-10-13T00:15:41.781Z,21.40
2022-10-13T00:18:09.165Z,22.92
2022-10-13T00:20:37.214Z,23.55
2022-10-13T00:23:04.339Z,23.15
2022-10-13T00:25:31.701Z,23.35
2022-10-13T00:27:58.855Z,24.88
2022-10-13T00:30:36.422Z,23.92
2022-10-13T00:33:03.710Z,24.45
2022-10-13T00:35:30.879Z,22.88
2022-10-13T00:37:58.086Z,23.00
2022-10-13T00:40:28.481Z,22.55
2022-10-13T00:42:55.608Z,22.98
2022-10-13T00:45:31.918Z,22.20
2022-10-13T00:48:00.555Z,21.85
2022-10-13T00:50:35.992Z,22.05
2022-10-13T00:53:05.797Z,21.40
2022-10-13T00:55:34.929Z,21.70
2022-10-13T00:58:05.416Z,20.63
2022-10-13T01:00:33.232Z,20.85
2022-10-13T01:03:01.386Z,21.33
2022-10-13T01:05:28.587Z,21.08
2022-10-13T01:07:55.791Z,21.08
2022-10-13T01:10:51.513Z,21.90
2022-10-13T01:13:27.679Z,20.60
2022-10-13T01:16:00.818Z,21.23
2022-10-13T01:18:36.907Z,20.05
2022-10-13T01:21:06.956Z,21.08
2022-10-13T01:24:03.453Z,20.00
2022-10-13T01:26:59.407Z,20.38
2022-10-13T01:30:10.628Z,20.60
2022-10-13T01:32:43.788Z,19.75
2022-10-13T01:35:45.447Z,20.13
2022-10-13T01:38:30.738Z,20.08
2022-10-13T01:41:02.638Z,19.65
2022-10-13T01:44:16.238Z,20.23
2022-10-13T01:46:50.339Z,18.88
2022-10-13T01:49:18.979Z,19.38
2022-10-13T01:51:46.115Z,18.33
2022-10-13T01:54:13.310Z,18.45
2022-10-13T01:56:40.643Z,18.02
2022-10-13T01:59:10.410Z,17.27
2022-10-13T02:01:55.563Z,18.05
2022-10-13T02:04:37.749Z,17.67
2022-10-13T02:07:18.162Z,18.65
2022-10-13T02:10:05.847Z,17.92
2022-10-13T02:12:37.414Z,17.67
2022-10-13T02:15:05.056Z,18.60
2022-10-13T02:17:32.542Z,17.80
2022-10-13T02:19:59.747Z,16.90
2022-10-13T02:22:29.627Z,17.83
2022-10-13T02:24:59.671Z,18.30
2022-10-13T02:27:28.116Z,16.83
2022-10-13T02:29:56.749Z,18.45
2022-10-13T02:32:29.369Z,18.88
2022-10-13T02:34:56.638Z,17.73
2022-10-13T02:37:25.650Z,19.20
2022-10-13T02:39:52.931Z,19.15
2022-10-13T02:42:20.453Z,18.35
2022-10-13T02:44:47.852Z,19.35
2022-10-13T02:47:15.119Z,18.58
2022-10-13T02:49:42.349Z,18.73
2022-10-13T02:52:09.563Z,18.88
2022-10-13T02:54:42.716Z,19.10
2022-10-13T02:57:09.909Z,19.83
2022-10-13T02:59:37.108Z,19.52
2022-10-13T03:02:04.351Z,19.17
2022-10-13T03:04:32.440Z,18.92
2022-10-13T03:06:59.670Z,18.58
2022-10-13T03:09:26.913Z,19.38
2022-10-13T03:11:54.158Z,18.33
2022-10-13T03:14:21.364Z,17.80
2022-10-13T03:16:48.560Z,17.10
2022-10-13T03:19:16.324Z,17.92
2022-10-13T03:21:43.550Z,16.73
2022-10-13T03:24:10.789Z,16.23
2022-10-13T03:26:38.001Z,16.45
2022-10-13T03:29:05.202Z,17.27
2022-10-13T03:31:32.388Z,16.17
2022-10-13T03:34:03.009Z,15.38
2022-10-13T03:36:30.204Z,13.82
2022-10-13T03:38:57.402Z,14.52
2022-10-13T03:41:24.886Z,13.52
2022-10-13T03:43:52.098Z,13.10
2022-10-13T03:46:19.387Z,13.25
2022-10-13T03:48:47.500Z,13.43
2022-10-13T03:51:16.679Z,12.68
2022-10-13T03:53:49.685Z,12.50
2022-10-13T03:56:18.762Z,11.75
2022-10-13T03:58:54.348Z,11.98
2022-10-13T04:01:22.636Z,10.60
2022-10-13T04:03:50.587Z,11.70
2022-10-13T04:06:17.818Z,10.82
2022-10-13T04:08:45.047Z,10.90
2022-10-13T04:11:13.232Z,10.48
2022-10-13T04:13:42.165Z,11.20
2022-10-13T04:16:13.102Z,11.48
2022-10-13T04:18:44.475Z,11.52
2022-10-13T04:21:14.201Z,11.40
2022-10-13T04:23:41.544Z,11.73
2022-10-13T04:26:15.006Z,11.65
2022-10-13T04:28:42.226Z,12.48
2022-10-13T04:31:09.430Z,12.10
2022-10-13T04:33:36.620Z,12.88
2022-10-13T04:36:08.413Z,12.80
2022-10-13T04:38:35.640Z,13.15
2022-10-13T04:41:06.336Z,12.98
2022-10-13T04:43:33.784Z,13.40
2022-10-13T04:46:06.449Z,13.70
2022-10-13T04:48:33.685Z,13.93
2022-10-13T04:51:08.970Z,14.27
2022-10-13T04:53:36.781Z,15.02
2022-10-13T04:56:14.743Z,14.63
2022-10-13T04:58:43.231Z,14.65
2022-10-13T05:01:21.114Z,15.10
2022-10-13T05:03:57.160Z,15.85
2022-10-13T05:06:29.397Z,15.93
2022-10-13T05:08:59.314Z,15.88
2022-10-13T05:11:27.331Z,16.40
2022-10-13T05:13:55.351Z,17.35
2022-10-13T05:16:23.234Z,17.52
2022-10-13T05:18:51.290Z,16.55
2022-10-13T05:21:20.612Z,16.85
2022-10-13T05:23:48.146Z,16.85
2022-10-13T05:26:16.940Z,16.70
2022-10-13T05:28:44.490Z,18.70
2022-10-13T05:31:20.092Z,18.73
2022-10-13T05:33:48.057Z,18.42
2022-10-13T05:36:24.990Z,17.30
2022-10-13T05:38:53.729Z,19.17
2022-10-13T05:41:21.328Z,19.15
2022-10-13T05:43:48.841Z,19.00
2022-10-13T05:46:19.204Z,19.65
2022-10-13T05:48:58.608Z,20.35
2022-10-13T05:51:41.109Z,19.98
2022-10-13T05:54:20.339Z,20.13
2022-10-13T05:56:56.184Z,23.05
2022-10-13T05:59:29.019Z,21.67
2022-10-13T06:01:59.235Z,21.58
2022-10-13T06:04:39.622Z,21.63
2022-10-13T06:07:18.212Z,21.40
2022-10-13T06:09:51.710Z,22.45
2022-10-13T06:12:22.055Z,21.17
2022-10-13T06:14:55.263Z,22.73
2022-10-13T06:17:28.244Z,20.23
2022-10-13T06:20:04.511Z,21.35
2022-10-13T06:22:35.375Z,21.73
2022-10-13T06:25:04.747Z,23.38
2022-10-13T06:27:35.181Z,23.20
2022-10-13T06:30:03.805Z,23.90
2022-10-13T06:32:31.519Z,22.27
2022-10-13T06:35:10.906Z,23.25
2022-10-13T06:37:43.841Z,22.52
2022-10-13T06:40:13.982Z,22.08
2022-10-13T06:42:44.277Z,24.83
2022-10-13T06:45:12.106Z,25.60
2022-10-13T06:47:41.232Z,23.30
2022-10-13T06:50:09.136Z,25.50
2022-10-13T06:52:36.793Z,22.77
2022-10-13T06:55:09.782Z,25.55
2022-10-13T06:57:44.214Z,23.60
2022-10-13T07:00:12.312Z,24.35
2022-10-13T07:02:40.099Z,25.52
2022-10-13T07:05:08.271Z,26.00
2022-10-13T07:07:36.049Z,23.95
2022-10-13T07:10:03.931Z,25.17
2022-10-13T07:12:31.458Z,25.35
2022-10-13T07:14:59.350Z,27.50
2022-10-13T07:17:30.137Z,25.90
2022-10-13T07:19:58.085Z,26.83
2022-10-13T07:22:27.584Z,24.83
2022-10-13T07:24:55.134Z,26.20
2022-10-13T07:27:25.079Z,25.73
2022-10-13T07:29:52.753Z,24.30
2022-10-13T07:32:20.291Z,23.55
2022-10-13T07:34:47.696Z,27.35
2022-10-13T07:37:15.301Z,24.40
2022-10-13T07:39:42.896Z,25.35
2022-10-13T07:42:10.231Z,26.10
2022-10-13T07:44:37.788Z,25.65
2022-10-13T07:47:05.497Z,26.27
2022-10-13T07:49:32.965Z,25.48
2022-10-13T07:52:04.703Z,25.23
2022-10-13T07:54:32.080Z,24.13
2022-10-13T07:56:59.363Z,26.33
2022-10-13T07:59:31.838Z,25.58
2022-10-13T08:02:00.676Z,26.42
2022-10-13T08:04:31.978Z,26.70
2022-10-13T08:06:59.540Z,25.77
2022-10-13T08:09:27.023Z,24.17
2022-10-13T08:11:58.889Z,24.58
2022-10-13T08:14:28.077Z,24.27
2022-10-13T08:16:58.484Z,24.85
2022-10-13T08:19:26.633Z,24.85
2022-10-13T08:21:59.272Z,24.00
2022-10-13T08:24:32.070Z,21.88
2022-10-13T08:26:59.635Z,22.25
2022-10-13T08:29:26.925Z,23.25
2022-10-13T08:31:54.472Z,22.15
2022-10-13T08:34:25.091Z,21.95
2022-10-13T08:36:54.305Z,23.95
2022-10-13T08:39:22.928Z,21.80
2022-10-13T08:41:50.516Z,22.25
2022-10-13T08:45:02.628Z,20.63
2022-10-13T08:47:21.609Z,20.20
2022-10-13T08:49:48.793Z,19.42
2022-10-13T08:52:24.552Z,20.25
2022-10-13T08:54:52.145Z,20.30
2022-10-13T08:57:20.869Z,18.80
2022-10-13T08:59:48.703Z,19.58
2022-10-13T09:02:29.906Z,18.05
2022-10-13T09:04:57.426Z,17.67
2022-10-13T09:07:26.389Z,17.98
2022-10-13T09:09:53.931Z,16.98
2022-10-13T09:12:26.695Z,17.50
2022-10-13T09:15:09.723Z,16.77
2022-10-13T09:17:38.293Z,15.75
2022-10-13T09:20:07.249Z,15.32
2022-10-13T09:22:35.641Z,15.25
2022-10-13T09:25:11.852Z,14.60
2022-10-13T09:27:58.183Z,14.52
2022-10-13T09:30:46.871Z,13.52
2022-10-13T09:33:24.115Z,13.10
2022-10-13T09:36:00.374Z,12.23
2022-10-13T09:38:27.995Z,13.60
2022-10-13T09:40:58.757Z,13.40
2022-10-13T09:43:30.415Z,12.27
2022-10-13T09:45:58.191Z,11.23
2022-10-13T09:48:34.865Z,12.23
2022-10-13T09:51:02.792Z,11.43
2022-10-13T09:53:37.695Z,11.77
2022-10-13T09:56:10.099Z,10.57
2022-10-13T10:01:22.315Z,10.63
2022-10-13T10:03:49.991Z,10.40
2022-10-13T10:06:18.698Z,12.48
2022-10-13T10:09:11.371Z,11.77
2022-10-13T10:11:42.706Z,11.25
2022-10-13T10:14:24.746Z,11.20
2022-10-13T10:16:55.071Z,11.55
2022-10-13T10:19:30.615Z,10.38
2022-10-13T10:22:07.397Z,11.30
2022-10-13T10:24:49.437Z,11.68
2022-10-13T10:29:52.334Z,10.95
2022-10-13T10:32:28.431Z,11.55
2022-10-13T10:35:12.030Z,11.20
2022-10-13T10:38:04.141Z,10.85
2022-10-13T10:40:34.703Z,10.77
2022-10-13T10:43:07.897Z,11.55
2022-10-13T10:45:37.752Z,11.75
2022-10-13T10:48:20.181Z,11.77
2022-10-13T10:50:47.532Z,11.70
2022-10-13T10:53:37.815Z,10.88
2022-10-13T10:56:06.023Z,11.20
2022-10-13T10:58:41.939Z,10.48
2022-10-13T11:01:12.296Z,10.88
2022-10-13T11:03:43.150Z,10.50
2022-10-13T11:06:16.255Z,10.73
2022-10-13T11:08:44.958Z,11.23
2022-10-13T11:11:29.305Z,10.13
2022-10-13T11:14:07.764Z,10.95
2022-10-13T11:16:39.442Z,10.68
2022-10-13T11:19:30.122Z,11.00
2022-10-13T11:21:57.740Z,10.60
2022-10-13T11:24:48.565Z,10.07
2022-10-13T11:27:15.772Z,10.00
2022-10-13T11:29:45.925Z,10.57
2022-10-13T11:32:25.798Z,10.15
2022-10-13T11:35:14.174Z,9.60
2022-10-13T11:38:09.257Z,10.75
2022-10-13T11:41:05.531Z,10.00
2022-10-13T11:43:46.066Z,9.38
2022-10-13T11:46:25.220Z,9.52
2022-10-13T11:49:13.763Z,9.98
2022-10-13T11:52:03.092Z,9.07
2022-10-13T11:54:43.453Z,10.32
2022-10-13T11:57:21.488Z,9.40
2022-10-13T11:59:49.859Z,8.57
2022-10-13T12:02:19.386Z,8.85
2022-10-13T12:05:20.421Z,8.95
2022-10-13T12:07:48.173Z,8.57
2022-10-13T12:10:21.112Z,9.90
2022-10-13T12:12:48.803Z,9.32
2022-10-13T12:15:42.527Z,9.20
2022-10-13T12:18:36.518Z,9.75
2022-10-13T12:21:11.144Z,7.25
2022-10-13T12:23:38.405Z,9.45
2022-10-13T12:26:05.699Z,10.13
2022-10-13T12:28:56.203Z,8.98
2022-10-13T12:31:44.055Z,9.07
2022-10-13T12:34:18.199Z,8.55
2022-10-13T12:36:46.265Z,9.23
2022-10-13T12:39:14.232Z,8.48
2022-10-13T12:41:43.510Z,9.88
2022-10-13T12:44:22.899Z,9.68
2022-10-13T12:46:56.006Z,10.27
2022-10-13T12:49:27.697Z,9.07
2022-10-13T12:52:26.006Z,9.18
2022-10-13T12:54:57.702Z,7.80
2022-10-13T12:57:38.325Z,9.23
2022-10-13T13:00:18.618Z,8.20
2022-10-13T13:02:59.800Z,9.23
2022-10-13T13:05:39.666Z,8.80
2022-10-13T13:08:30.277Z,9.15
2022-10-13T13:11:01.343Z,8.30
2022-10-13T13:13:28.602Z,7.50
2022-10-13T13:16:23.435Z,7.53
2022-10-13T13:18:50.971Z,7.43
2022-10-13T13:21:19.634Z,7.80
2022-10-13T13:23:52.803Z,7.22
2022-10-13T13:26:22.713Z,8.98
2022-10-13T13:28:54.572Z,9.35
2022-10-13T13:31:23.571Z,8.75
2022-10-13T13:33:51.283Z,7.90
2022-10-13T13:36:20.259Z,7.55
2022-10-13T13:38:52.441Z,7.32
2022-10-13T13:41:19.814Z,8.27
2022-10-13T13:43:47.039Z,7.93
2022-10-13T13:46:21.751Z,7.28
2022-10-13T13:48:48.979Z,8.23
2022-10-13T13:51:16.816Z,7.80
2022-10-13T13:53:45.498Z,7.97
2022-10-13T13:56:17.509Z,7.75
2022-10-13T13:58:44.790Z,8.40
2022-10-13T14:01:12.874Z,7.88
2022-10-13T14:03:40.075Z,11.27
2022-10-13T14:06:08.856Z,7.50
2022-10-13T14:08:43.367Z,7.90
2022-10-13T14:11:10.777Z,7.43
2022-10-13T14:13:37.990Z,7.55
2022-10-13T14:16:05.445Z,7.90
2022-10-13T14:18:32.666Z,8.90
2022-10-13T14:20:59.885Z,7.97
2022-10-13T14:23:27.043Z,8.00
2022-10-13T14:25:54.190Z,8.68
2022-10-13T14:28:23.018Z,10.05
2022-10-13T14:30:50.242Z,8.63
2022-10-13T14:33:19.524Z,7.03
2022-10-13T14:35:46.983Z,7.47
2022-10-13T14:38:16.681Z,7.28
2022-10-13T14:40:44.815Z,6.93
2022-10-13T14:43:11.945Z,7.47
2022-10-13T14:45:39.146Z,8.90
2022-10-13T14:48:06.298Z,7.97
2022-10-13T14:50:34.443Z,7.32
2022-10-13T14:53:01.662Z,8.32
2022-10-13T14:55:30.860Z,7.90
2022-10-13T14:57:58.062Z,8.40
2022-10-13T15:00:25.494Z,7.28
2022-10-13T15:02:52.663Z,8.00
2022-10-13T15:05:20.347Z,8.80
2022-10-13T15:07:47.517Z,8.35
2022-10-13T15:10:14.706Z,7.50
2022-10-13T15:12:41.906Z,7.10
2022-10-13T15:15:10.285Z,7.50
2022-10-13T15:17:37.456Z,6.90
2022-10-13T15:20:05.601Z,6.63
2022-10-13T15:22:32.742Z,6.63
2022-10-13T15:24:59.896Z,7.13
2022-10-13T15:27:27.042Z,6.47
2022-10-13T15:29:54.205Z,6.65
2022-10-13T15:32:21.705Z,6.70
2022-10-13T15:34:51.786Z,6.68
2022-10-13T15:37:18.951Z,6.32
2022-10-13T15:39:46.187Z,6.88
2022-10-13T15:42:13.397Z,6.80
2022-10-13T15:45:04.562Z,6.25
2022-10-13T15:47:27.699Z,6.72
2022-10-13T15:49:55.054Z,6.25
2022-10-13T15:52:22.514Z,6.13
2022-10-13T15:54:51.411Z,6.70
2022-10-13T15:57:18.565Z,6.10
2022-10-13T15:59:45.738Z,6.05
2022-10-13T16:02:12.882Z,6.40
2022-10-13T16:04:40.177Z,6.22
2022-10-13T16:07:07.306Z,6.47
2022-10-13T16:09:34.448Z,6.32
2022-10-13T16:12:01.767Z,6.93
2022-10-13T16:14:29.002Z,7.60
2022-10-13T16:16:58.071Z,6.72
2022-10-13T16:19:25.249Z,7.18
2022-10-13T16:21:52.803Z,6.95
2022-10-13T16:24:20.041Z,7.50
2022-10-13T16:26:47.198Z,7.32
2022-10-13T16:29:14.370Z,7.70
2022-10-13T16:31:41.514Z,7.45
2022-10-13T16:34:08.678Z,7.55
2022-10-13T16:36:35.811Z,7.68
2022-10-13T16:39:02.962Z,7.55
2022-10-13T16:41:30.115Z,7.18
2022-10-13T16:43:57.394Z,7.80
2022-10-13T16:46:24.578Z,7.68
2022-10-13T16:48:51.752Z,7.47
2022-10-13T16:51:23.267Z,7.35
2022-10-13T16:53:51.547Z,7.28
2022-10-13T16:56:22.060Z,7.95
2022-10-13T16:58:53.224Z,8.63
2022-10-13T17:01:20.587Z,8.10
2022-10-13T17:03:48.054Z,8.35
2022-10-13T17:06:15.264Z,8.60
2022-10-13T17:08:42.857Z,7.82
2022-10-13T17:11:18.008Z,7.93
2022-10-13T17:13:45.138Z,7.90
2022-10-13T17:16:12.380Z,8.57
2022-10-13T17:18:42.853Z,8.93
2022-10-13T17:21:10.407Z,9.02
2022-10-13T17:23:37.567Z,9.07
2022-10-13T17:26:12.114Z,7.90
2022-10-13T17:28:39.482Z,8.05
2022-10-13T17:31:12.278Z,8.60
2022-10-13T17:33:40.252Z,8.48
2022-10-13T17:36:18.091Z,8.60
2022-10-13T17:38:45.539Z,7.68
2022-10-13T17:41:12.814Z,8.38
2022-10-13T17:43:49.722Z,8.65
2022-10-13T17:46:37.309Z,7.45
2022-10-13T17:49:05.509Z,8.85
2022-10-13T17:51:32.670Z,9.23
2022-10-13T17:54:00.157Z,8.10
2022-10-13T17:56:27.684Z,9.65
2022-10-13T17:58:55.055Z,8.27
2022-10-13T18:01:30.009Z,8.80
2022-10-13T18:04:02.391Z,7.97
2022-10-13T18:06:36.798Z,8.02
2022-10-13T18:09:08.782Z,8.57
2022-10-13T18:11:36.171Z,7.95
2022-10-13T18:14:03.498Z,7.95
2022-10-13T18:16:30.793Z,8.32
2022-10-13T18:18:57.975Z,8.10
2022-10-13T18:21:29.162Z,8.52
2022-10-13T18:23:57.370Z,8.73
2022-10-13T18:26:24.798Z,9.15
2022-10-13T18:28:52.229Z,8.57
2022-10-13T18:31:23.472Z,8.52
2022-10-13T18:33:51.711Z,8.80
2022-10-13T18:36:31.804Z,9.25
2022-10-13T18:39:10.932Z,9.77
2022-10-13T18:41:39.534Z,9.40
2022-10-13T18:44:07.005Z,9.30
2022-10-13T18:46:34.755Z,8.75
2022-10-13T18:49:02.662Z,9.77
2022-10-13T18:51:35.662Z,9.27
2022-10-13T18:54:03.729Z,10.07
2022-10-13T18:56:31.123Z,10.48
2022-10-13T18:59:00.343Z,10.20
2022-10-13T19:01:28.938Z,10.30
2022-10-13T19:03:56.074Z,9.60
2022-10-13T19:06:27.036Z,9.38
2022-10-13T19:09:03.382Z,9.65
2022-10-13T19:11:30.644Z,10.07
2022-10-13T19:13:58.289Z,10.68
2022-10-13T19:16:26.238Z,10.52
2022-10-13T19:18:53.459Z,10.50
2022-10-13T19:21:21.028Z,11.00
2022-10-13T19:23:48.301Z,11.23
2022-10-13T19:26:26.112Z,10.93
2022-10-13T19:29:04.642Z,10.00
2022-10-13T19:31:32.032Z,11.50
2022-10-13T19:33:59.398Z,11.30
2022-10-13T19:36:33.718Z,10.50
2022-10-13T19:41:29.323Z,9.23
2022-10-13T19:43:56.545Z,10.52
2022-10-13T19:46:24.769Z,10.15
2022-10-13T19:48:51.959Z,10.45
2022-10-13T19:51:19.118Z,11.15
2022-10-13T19:53:46.298Z,10.73
2022-10-13T19:56:24.669Z,10.15
2022-10-13T19:58:52.101Z,10.23
2022-10-13T20:01:20.972Z,10.57
2022-10-13T20:03:48.298Z,10.63
2022-10-13T20:06:15.767Z,10.27
2022-10-13T20:08:43.091Z,10.00
2022-10-13T20:11:11.315Z,10.30
2022-10-13T20:13:38.489Z,11.55
2022-10-13T20:16:07.256Z,10.70
2022-10-13T20:18:34.759Z,11.25
2022-10-13T20:21:05.942Z,10.73
2022-10-13T20:23:33.253Z,10.45
2022-10-13T20:26:08.156Z,11.27
2022-10-13T20:28:40.474Z,11.77
2022-10-13T20:31:12.602Z,10.88
2022-10-13T20:33:40.197Z,11.35
2022-10-13T20:36:10.352Z,11.35
2022-10-13T20:38:37.578Z,10.70
2022-10-13T20:41:06.544Z,11.60
2022-10-13T20:43:34.171Z,10.68
2022-10-13T20:46:02.223Z,10.95
2022-10-13T20:48:57.725Z,10.82
2022-10-13T20:51:22.075Z,11.10
2022-10-13T20:53:49.459Z,10.65
2022-10-13T20:56:18.665Z,10.55
2022-10-13T20:58:45.858Z,10.25
2022-10-13T21:01:13.343Z,10.75
2022-10-13T21:03:40.584Z,10.90
2022-10-13T21:06:10.367Z,11.00
2022-10-13T21:08:37.740Z,10.43
2022-10-13T21:11:11.787Z,10.95
2022-10-13T21:13:39.590Z,10.55
2022-10-13T21:16:08.307Z,10.65
2022-10-13T21:18:35.555Z,10.32
2022-10-13T21:21:07.364Z,10.15
2022-10-13T21:23:34.591Z,9.90
2022-10-13T21:26:05.583Z,9.38
2022-10-13T21:28:33.051Z,9.98
2022-10-13T21:31:00.967Z,9.88
2022-10-13T21:33:28.538Z,9.50
2022-10-13T21:35:58.022Z,9.50
2022-10-13T21:38:25.320Z,8.82
2022-10-13T21:40:54.042Z,10.25
2022-10-13T21:43:21.535Z,9.68
2022-10-13T21:45:48.675Z,9.32
2022-10-13T21:48:17.133Z,9.57
2022-10-13T21:50:44.291Z,10.07
2022-10-13T21:53:11.479Z,9.73
2022-10-13T21:55:38.630Z,9.80
2022-10-13T21:58:05.831Z,10.27
2022-10-13T22:00:33.082Z,11.20
2022-10-13T22:03:00.255Z,10.55
2022-10-13T22:05:27.399Z,10.85
2022-10-13T22:07:57.542Z,11.70
2022-10-13T22:10:24.679Z,10.60
2022-10-13T22:12:51.822Z,10.48
2022-10-13T22:15:18.997Z,11.80
2022-10-13T22:17:46.157Z,11.80
2022-10-13T22:20:13.311Z,11.90
2022-10-13T22:22:40.565Z,11.88
